X  Sluiten METAR luchtvaart weer gegevens      EHLW Leeuwarden Air Base
Temperatuur
6°C Temperatuur
1°C Dauwpunt
71% Vochtigheid



Wind
27 KM/U
17 MPH
8 M/S
15 KTS



360°
Noord
Huidig weer

Wat bewolking Wat bewolking
Luchtdruk 1020.92 (hPa) - 30.15 (inHg)
Zicht 6.2 (mijl) - 10 (km)
Vliegveld
Vliegveld code EHLW

Locatie : Leeuwarden Air Base
Afstand: 30 (km)

Metar:
EHLW 041155Z AUTO 36015KT 9999 FEW019 OVC022 06/01 Q1021 WHT TEMPO FEW008 SCT010 BKN017

Tijd: 04-03-2021 12:55 CET